sensor_id;sensor_type;location;lat;lon;timestamp;pressure;altitude;pressure_sealevel;temperature;humidity
74181;BME280;62544;50.826;14.354;2022-12-29T00:03:04;98790.22;;;6.15;76.88
74181;BME280;62544;50.826;14.354;2022-12-29T00:07:08;98787.95;;;6.12;76.68
74181;BME280;62544;50.826;14.354;2022-12-29T00:11:16;98783.75;;;6.12;76.26
74181;BME280;62544;50.826;14.354;2022-12-29T00:15:16;98779.91;;;6.10;76.74
74181;BME280;62544;50.826;14.354;2022-12-29T00:19:20;98780.42;;;6.09;76.28
74181;BME280;62544;50.826;14.354;2022-12-29T00:23:24;98777.44;;;6.08;76.23
74181;BME280;62544;50.826;14.354;2022-12-29T00:27:29;98772.20;;;6.07;76.29
74181;BME280;62544;50.826;14.354;2022-12-29T00:31:32;98768.64;;;6.01;77.16
74181;BME280;62544;50.826;14.354;2022-12-29T00:35:38;98766.32;;;5.95;77.74
74181;BME280;62544;50.826;14.354;2022-12-29T00:39:40;98765.16;;;5.93;77.01
74181;BME280;62544;50.826;14.354;2022-12-29T00:43:44;98761.00;;;5.90;77.38
74181;BME280;62544;50.826;14.354;2022-12-29T00:47:48;98755.84;;;5.86;77.69
74181;BME280;62544;50.826;14.354;2022-12-29T00:51:52;98752.12;;;5.81;78.15
74181;BME280;62544;50.826;14.354;2022-12-29T00:55:56;98747.90;;;5.76;78.33
74181;BME280;62544;50.826;14.354;2022-12-29T01:00:00;98745.48;;;5.72;78.22
74181;BME280;62544;50.826;14.354;2022-12-29T01:04:05;98742.03;;;5.71;77.68
74181;BME280;62544;50.826;14.354;2022-12-29T01:08:08;98741.01;;;5.73;77.36
74181;BME280;62544;50.826;14.354;2022-12-29T01:12:12;98738.01;;;5.81;76.36
74181;BME280;62544;50.826;14.354;2022-12-29T01:16:16;98734.91;;;5.87;76.31
74181;BME280;62544;50.826;14.354;2022-12-29T01:20:20;98731.98;;;5.91;76.14
74181;BME280;62544;50.826;14.354;2022-12-29T01:24:24;98727.14;;;5.96;75.81
74181;BME280;62544;50.826;14.354;2022-12-29T01:28:28;98723.25;;;6.05;74.90
74181;BME280;62544;50.826;14.354;2022-12-29T01:32:32;98721.37;;;6.14;74.46
74181;BME280;62544;50.826;14.354;2022-12-29T01:36:36;98722.14;;;6.23;73.68
74181;BME280;62544;50.826;14.354;2022-12-29T01:40:43;98723.28;;;6.31;73.87
74181;BME280;62544;50.826;14.354;2022-12-29T01:44:51;98724.38;;;6.41;73.77
74181;BME280;62544;50.826;14.354;2022-12-29T01:48:48;98722.93;;;6.48;75.45
74181;BME280;62544;50.826;14.354;2022-12-29T01:52:56;98721.48;;;6.51;77.07
74181;BME280;62544;50.826;14.354;2022-12-29T01:56:57;98718.13;;;6.50;78.99
74181;BME280;62544;50.826;14.354;2022-12-29T02:01:00;98714.76;;;6.43;79.90
74181;BME280;62544;50.826;14.354;2022-12-29T02:05:09;98711.99;;;6.36;80.80
74181;BME280;62544;50.826;14.354;2022-12-29T02:09:08;98708.76;;;6.26;80.60
74181;BME280;62544;50.826;14.354;2022-12-29T02:13:14;98706.92;;;6.16;82.92
74181;BME280;62544;50.826;14.354;2022-12-29T02:17:20;98707.20;;;6.09;82.79
74181;BME280;62544;50.826;14.354;2022-12-29T02:25:35;98703.44;;;6.07;83.09
74181;BME280;62544;50.826;14.354;2022-12-29T02:33:42;98698.95;;;6.08;83.24
74181;BME280;62544;50.826;14.354;2022-12-29T02:41:48;98694.70;;;5.98;81.91
74181;BME280;62544;50.826;14.354;2022-12-29T02:49:51;98689.09;;;5.92;82.87
74181;BME280;62544;50.826;14.354;2022-12-29T02:53:53;98685.83;;;5.89;81.20
74181;BME280;62544;50.826;14.354;2022-12-29T03:14:29;98664.53;;;5.91;75.51
74181;BME280;62544;50.826;14.354;2022-12-29T03:22:22;98656.80;;;6.04;75.31
74181;BME280;62544;50.826;14.354;2022-12-29T03:26:25;98654.93;;;6.12;74.58
74181;BME280;62544;50.826;14.354;2022-12-29T03:30:29;98654.77;;;6.17;73.18
74181;BME280;62544;50.826;14.354;2022-12-29T03:34:33;98654.77;;;6.23;73.07
74181;BME280;62544;50.826;14.354;2022-12-29T03:38:41;98658.11;;;6.30;72.76
74181;BME280;62544;50.826;14.354;2022-12-29T03:42:41;98660.71;;;6.38;72.90
74181;BME280;62544;50.826;14.354;2022-12-29T03:46:45;98661.87;;;6.43;72.89
74181;BME280;62544;50.826;14.354;2022-12-29T03:50:49;98662.38;;;6.52;73.03
74181;BME280;62544;50.826;14.354;2022-12-29T03:54:53;98661.19;;;6.55;72.68
74181;BME280;62544;50.826;14.354;2022-12-29T03:58:57;98659.28;;;6.61;72.48
74181;BME280;62544;50.826;14.354;2022-12-29T04:03:01;98655.69;;;6.62;72.39
74181;BME280;62544;50.826;14.354;2022-12-29T04:07:05;98649.47;;;6.59;72.49
74181;BME280;62544;50.826;14.354;2022-12-29T04:11:09;98643.57;;;6.58;72.05
74181;BME280;62544;50.826;14.354;2022-12-29T04:15:14;98638.17;;;6.59;72.27
74181;BME280;62544;50.826;14.354;2022-12-29T04:19:18;98634.69;;;6.60;72.00
74181;BME280;62544;50.826;14.354;2022-12-29T04:23:22;98632.39;;;6.64;71.58
74181;BME280;62544;50.826;14.354;2022-12-29T04:27:25;98630.06;;;6.69;71.21
74181;BME280;62544;50.826;14.354;2022-12-29T04:31:30;98626.73;;;6.76;71.04
74181;BME280;62544;50.826;14.354;2022-12-29T04:35:34;98623.69;;;6.79;70.85
74181;BME280;62544;50.826;14.354;2022-12-29T04:39:38;98620.17;;;6.83;71.58
74181;BME280;62544;50.826;14.354;2022-12-29T04:43:41;98618.75;;;6.87;70.75
74181;BME280;62544;50.826;14.354;2022-12-29T04:47:45;98619.00;;;6.88;70.74
74181;BME280;62544;50.826;14.354;2022-12-29T04:51:50;98619.40;;;6.88;70.91
74181;BME280;62544;50.826;14.354;2022-12-29T04:55:54;98617.31;;;6.85;71.41
74181;BME280;62544;50.826;14.354;2022-12-29T04:59:57;98614.53;;;6.87;70.75
74181;BME280;62544;50.826;14.354;2022-12-29T05:04:01;98613.76;;;6.90;71.14
74181;BME280;62544;50.826;14.354;2022-12-29T05:08:06;98614.87;;;6.93;69.92
74181;BME280;62544;50.826;14.354;2022-12-29T05:12:10;98617.38;;;6.94;70.29
74181;BME280;62544;50.826;14.354;2022-12-29T05:16:13;98620.03;;;6.99;69.87
74181;BME280;62544;50.826;14.354;2022-12-29T05:20:17;98621.56;;;7.04;69.85
74181;BME280;62544;50.826;14.354;2022-12-29T05:24:21;98622.09;;;7.08;69.57
74181;BME280;62544;50.826;14.354;2022-12-29T05:28:26;98622.69;;;7.03;70.44
74181;BME280;62544;50.826;14.354;2022-12-29T05:32:29;98624.19;;;6.98;71.40
74181;BME280;62544;50.826;14.354;2022-12-29T05:36:33;98627.15;;;6.93;71.32
74181;BME280;62544;50.826;14.354;2022-12-29T05:40:38;98631.25;;;6.89;70.99
74181;BME280;62544;50.826;14.354;2022-12-29T05:44:41;98632.01;;;6.85;71.35
74181;BME280;62544;50.826;14.354;2022-12-29T05:48:46;98630.66;;;6.82;72.26
74181;BME280;62544;50.826;14.354;2022-12-29T05:52:49;98631.52;;;6.81;72.40
74181;BME280;62544;50.826;14.354;2022-12-29T05:56:53;98629.66;;;6.78;72.20
74181;BME280;62544;50.826;14.354;2022-12-29T06:00:57;98627.37;;;6.77;73.45
74181;BME280;62544;50.826;14.354;2022-12-29T06:05:02;98625.31;;;6.73;76.04
74181;BME280;62544;50.826;14.354;2022-12-29T06:09:05;98622.32;;;6.69;75.87
74181;BME280;62544;50.826;14.354;2022-12-29T06:13:09;98619.02;;;6.64;77.46
74181;BME280;62544;50.826;14.354;2022-12-29T06:17:13;98616.99;;;6.57;78.21
74181;BME280;62544;50.826;14.354;2022-12-29T06:21:17;98617.28;;;6.54;78.63
74181;BME280;62544;50.826;14.354;2022-12-29T06:25:21;98616.10;;;6.52;78.61
74181;BME280;62544;50.826;14.354;2022-12-29T06:29:25;98615.53;;;6.51;78.80
74181;BME280;62544;50.826;14.354;2022-12-29T06:33:29;98614.47;;;6.51;78.71
74181;BME280;62544;50.826;14.354;2022-12-29T06:37:33;98616.55;;;6.49;78.88
74181;BME280;62544;50.826;14.354;2022-12-29T06:41:37;98619.13;;;6.44;78.63
74181;BME280;62544;50.826;14.354;2022-12-29T06:45:42;98623.96;;;6.41;79.41
74181;BME280;62544;50.826;14.354;2022-12-29T06:49:45;98628.49;;;6.40;79.29
74181;BME280;62544;50.826;14.354;2022-12-29T06:53:49;98631.66;;;6.39;80.35
74181;BME280;62544;50.826;14.354;2022-12-29T06:57:54;98633.68;;;6.37;79.97
74181;BME280;62544;50.826;14.354;2022-12-29T07:01:57;98636.03;;;6.34;80.02
74181;BME280;62544;50.826;14.354;2022-12-29T07:06:01;98635.50;;;6.31;79.86
74181;BME280;62544;50.826;14.354;2022-12-29T07:10:06;98634.89;;;6.29;79.50
74181;BME280;62544;50.826;14.354;2022-12-29T07:14:10;98633.28;;;6.25;79.61
74181;BME280;62544;50.826;14.354;2022-12-29T07:18:13;98631.22;;;6.21;79.47
74181;BME280;62544;50.826;14.354;2022-12-29T07:22:17;98628.99;;;6.15;78.72
74181;BME280;62544;50.826;14.354;2022-12-29T07:26:21;98628.34;;;6.10;79.33
74181;BME280;62544;50.826;14.354;2022-12-29T07:30:25;98628.72;;;6.06;79.28
74181;BME280;62544;50.826;14.354;2022-12-29T07:34:29;98627.56;;;6.01;79.25
74181;BME280;62544;50.826;14.354;2022-12-29T07:38:33;98627.50;;;6.01;78.51
74181;BME280;62544;50.826;14.354;2022-12-29T07:42:37;98627.29;;;6.03;78.01
74181;BME280;62544;50.826;14.354;2022-12-29T07:46:41;98626.08;;;6.02;78.39
74181;BME280;62544;50.826;14.354;2022-12-29T07:50:45;98625.86;;;5.99;78.72
74181;BME280;62544;50.826;14.354;2022-12-29T07:54:49;98626.98;;;5.96;78.65
74181;BME280;62544;50.826;14.354;2022-12-29T07:58:53;98630.04;;;5.96;77.66
74181;BME280;62544;50.826;14.354;2022-12-29T08:02:57;98633.25;;;6.00;77.27
74181;BME280;62544;50.826;14.354;2022-12-29T08:07:01;98631.64;;;6.04;78.00
74181;BME280;62544;50.826;14.354;2022-12-29T08:11:05;98628.13;;;6.07;78.97
74181;BME280;62544;50.826;14.354;2022-12-29T08:15:10;98623.97;;;6.09;78.39
74181;BME280;62544;50.826;14.354;2022-12-29T08:19:13;98621.15;;;6.10;78.84
74181;BME280;62544;50.826;14.354;2022-12-29T08:23:17;98618.85;;;6.10;78.90
74181;BME280;62544;50.826;14.354;2022-12-29T08:27:21;98617.49;;;6.08;79.77
74181;BME280;62544;50.826;14.354;2022-12-29T08:31:25;98616.14;;;6.03;80.98
74181;BME280;62544;50.826;14.354;2022-12-29T08:35:29;98618.33;;;6.02;80.66
74181;BME280;62544;50.826;14.354;2022-12-29T08:39:33;98619.05;;;6.03;80.74
74181;BME280;62544;50.826;14.354;2022-12-29T08:43:37;98618.56;;;6.08;79.33
74181;BME280;62544;50.826;14.354;2022-12-29T08:47:41;98620.04;;;6.22;76.54
74181;BME280;62544;50.826;14.354;2022-12-29T08:51:45;98620.06;;;6.43;74.78
74181;BME280;62544;50.826;14.354;2022-12-29T08:55:54;98619.87;;;6.68;73.51
74181;BME280;62544;50.826;14.354;2022-12-29T08:59:53;98618.70;;;6.91;71.46
74181;BME280;62544;50.826;14.354;2022-12-29T09:03:57;98618.77;;;7.16;71.99
74181;BME280;62544;50.826;14.354;2022-12-29T09:08:01;98617.97;;;7.43;70.59
74181;BME280;62544;50.826;14.354;2022-12-29T09:12:05;98615.23;;;7.70;69.18
74181;BME280;62544;50.826;14.354;2022-12-29T09:16:09;98612.75;;;7.97;68.45
74181;BME280;62544;50.826;14.354;2022-12-29T09:20:14;98611.64;;;8.19;67.17
74181;BME280;62544;50.826;14.354;2022-12-29T09:24:17;98611.56;;;8.32;67.59
74181;BME280;62544;50.826;14.354;2022-12-29T09:28:21;98611.70;;;8.50;67.35
74181;BME280;62544;50.826;14.354;2022-12-29T09:32:25;98609.41;;;8.63;65.75
74181;BME280;62544;50.826;14.354;2022-12-29T09:36:29;98608.73;;;8.73;66.88
74181;BME280;62544;50.826;14.354;2022-12-29T09:40:33;98608.98;;;8.85;66.21
74181;BME280;62544;50.826;14.354;2022-12-29T09:48:43;98604.44;;;9.03;64.32
74181;BME280;62544;50.826;14.354;2022-12-29T09:56:49;98600.44;;;9.36;62.06
74181;BME280;62544;50.826;14.354;2022-12-29T10:01:01;98597.67;;;9.62;62.37
74181;BME280;62544;50.826;14.354;2022-12-29T10:04:57;98594.26;;;9.90;61.96
74181;BME280;62544;50.826;14.354;2022-12-29T10:13:20;98587.89;;;10.41;58.86
74181;BME280;62544;50.826;14.354;2022-12-29T10:21:17;98587.25;;;11.00;59.11
74181;BME280;62544;50.826;14.354;2022-12-29T10:25:22;98585.35;;;11.28;55.59
74181;BME280;62544;50.826;14.354;2022-12-29T10:29:26;98587.25;;;11.52;57.63
74181;BME280;62544;50.826;14.354;2022-12-29T10:33:31;98589.10;;;11.81;55.83
74181;BME280;62544;50.826;14.354;2022-12-29T10:41:38;98587.77;;;12.44;53.40
74181;BME280;62544;50.826;14.354;2022-12-29T10:45:37;98586.69;;;12.56;51.70
74181;BME280;62544;50.826;14.354;2022-12-29T10:49:42;98583.86;;;12.58;54.01
74181;BME280;62544;50.826;14.354;2022-12-29T10:53:47;98578.65;;;12.45;54.54
74181;BME280;62544;50.826;14.354;2022-12-29T10:57:49;98573.49;;;12.29;56.73
74181;BME280;62544;50.826;14.354;2022-12-29T11:06:05;98564.97;;;11.81;56.44
74181;BME280;62544;50.826;14.354;2022-12-29T11:22:19;98556.18;;;11.40;58.17
74181;BME280;62544;50.826;14.354;2022-12-29T11:26:20;98553.67;;;11.34;59.08
74181;BME280;62544;50.826;14.354;2022-12-29T11:30:22;98549.16;;;11.32;59.82
74181;BME280;62544;50.826;14.354;2022-12-29T11:34:32;98545.59;;;11.30;59.03
74181;BME280;62544;50.826;14.354;2022-12-29T11:38:48;98541.20;;;11.29;59.11
74181;BME280;62544;50.826;14.354;2022-12-29T11:42:38;98536.83;;;11.33;59.74
74181;BME280;62544;50.826;14.354;2022-12-29T11:46:37;98534.29;;;11.42;58.49
74181;BME280;62544;50.826;14.354;2022-12-29T11:50:41;98530.58;;;11.52;58.38
74181;BME280;62544;50.826;14.354;2022-12-29T11:54:45;98526.61;;;11.67;58.35
74181;BME280;62544;50.826;14.354;2022-12-29T11:58:49;98524.21;;;11.90;57.11
74181;BME280;62544;50.826;14.354;2022-12-29T12:03:00;98521.08;;;12.12;57.44
74181;BME280;62544;50.826;14.354;2022-12-29T12:06:59;98518.95;;;12.33;57.38
74181;BME280;62544;50.826;14.354;2022-12-29T12:11:04;98517.81;;;12.51;55.75
74181;BME280;62544;50.826;14.354;2022-12-29T12:15:07;98516.66;;;12.65;57.53
74181;BME280;62544;50.826;14.354;2022-12-29T12:19:20;98514.72;;;12.67;58.03
74181;BME280;62544;50.826;14.354;2022-12-29T12:27:26;98511.36;;;12.56;60.00
74181;BME280;62544;50.826;14.354;2022-12-29T12:31:41;98510.92;;;12.43;59.66
74181;BME280;62544;50.826;14.354;2022-12-29T12:35:41;98509.14;;;12.34;60.75
74181;BME280;62544;50.826;14.354;2022-12-29T12:47:44;98505.33;;;12.02;62.32
74181;BME280;62544;50.826;14.354;2022-12-29T12:51:57;98504.21;;;11.91;63.44
74181;BME280;62544;50.826;14.354;2022-12-29T13:00:03;98503.00;;;11.77;63.10
74181;BME280;62544;50.826;14.354;2022-12-29T13:04:12;98502.11;;;11.72;64.02
74181;BME280;62544;50.826;14.354;2022-12-29T13:16:12;98499.53;;;11.57;63.82
74181;BME280;62544;50.826;14.354;2022-12-29T13:28:50;98498.11;;;11.68;65.79
74181;BME280;62544;50.826;14.354;2022-12-29T13:36:27;98498.21;;;11.71;66.51
74181;BME280;62544;50.826;14.354;2022-12-29T13:40:32;98495.34;;;11.71;66.65
74181;BME280;62544;50.826;14.354;2022-12-29T13:44:36;98492.41;;;11.63;63.54
74181;BME280;62544;50.826;14.354;2022-12-29T13:48:48;98490.72;;;11.55;62.91
74181;BME280;62544;50.826;14.354;2022-12-29T13:52:47;98490.58;;;11.48;63.73
74181;BME280;62544;50.826;14.354;2022-12-29T13:56:49;98490.86;;;11.47;64.37
74181;BME280;62544;50.826;14.354;2022-12-29T14:05:27;98492.52;;;11.49;63.31
74181;BME280;62544;50.826;14.354;2022-12-29T14:08:58;98494.17;;;11.48;65.48
74181;BME280;62544;50.826;14.354;2022-12-29T14:13:03;98497.03;;;11.43;66.83
74181;BME280;62544;50.826;14.354;2022-12-29T14:17:08;98501.18;;;11.34;68.08
74181;BME280;62544;50.826;14.354;2022-12-29T14:33:22;98513.64;;;10.92;69.33
74181;BME280;62544;50.826;14.354;2022-12-29T14:37:33;98515.25;;;10.85;69.86
74181;BME280;62544;50.826;14.354;2022-12-29T14:41:35;98515.92;;;10.76;70.93
74181;BME280;62544;50.826;14.354;2022-12-29T14:45:33;98514.15;;;10.65;71.98
74181;BME280;62544;50.826;14.354;2022-12-29T14:49:40;98514.20;;;10.54;69.17
74181;BME280;62544;50.826;14.354;2022-12-29T14:53:48;98513.90;;;10.46;69.00
74181;BME280;62544;50.826;14.354;2022-12-29T14:57:49;98514.23;;;10.41;68.41
74181;BME280;62544;50.826;14.354;2022-12-29T15:01:50;98512.30;;;10.37;67.86
74181;BME280;62544;50.826;14.354;2022-12-29T15:05:56;98511.00;;;10.33;69.03
74181;BME280;62544;50.826;14.354;2022-12-29T15:09:59;98510.85;;;10.28;68.81
74181;BME280;62544;50.826;14.354;2022-12-29T15:14:01;98511.07;;;10.21;68.96
74181;BME280;62544;50.826;14.354;2022-12-29T15:18:21;98511.97;;;10.14;67.86
74181;BME280;62544;50.826;14.354;2022-12-29T15:22:09;98511.97;;;10.07;69.58
74181;BME280;62544;50.826;14.354;2022-12-29T15:26:13;98513.59;;;9.98;70.88
74181;BME280;62544;50.826;14.354;2022-12-29T15:30:18;98514.84;;;9.88;70.80
74181;BME280;62544;50.826;14.354;2022-12-29T15:34:21;98515.24;;;9.78;70.83
74181;BME280;62544;50.826;14.354;2022-12-29T15:38:27;98515.74;;;9.67;71.42
74181;BME280;62544;50.826;14.354;2022-12-29T15:46:33;98515.64;;;9.41;72.55
74181;BME280;62544;50.826;14.354;2022-12-29T15:50:37;98519.01;;;9.23;73.44
74181;BME280;62544;50.826;14.354;2022-12-29T15:54:42;98520.86;;;9.05;73.78
74181;BME280;62544;50.826;14.354;2022-12-29T15:58:46;98522.73;;;8.86;75.32
74181;BME280;62544;50.826;14.354;2022-12-29T16:02:49;98525.16;;;8.67;76.12
74181;BME280;62544;50.826;14.354;2022-12-29T16:06:54;98528.54;;;8.47;76.85
74181;BME280;62544;50.826;14.354;2022-12-29T16:10:57;98531.23;;;8.28;76.85
74181;BME280;62544;50.826;14.354;2022-12-29T16:15:02;98533.37;;;8.12;77.22
74181;BME280;62544;50.826;14.354;2022-12-29T16:19:19;98535.92;;;7.96;77.37
74181;BME280;62544;50.826;14.354;2022-12-29T16:23:16;98541.77;;;7.83;79.56
74181;BME280;62544;50.826;14.354;2022-12-29T16:31:21;98553.42;;;7.59;81.17
74181;BME280;62544;50.826;14.354;2022-12-29T16:35:23;98557.40;;;7.51;80.20
74181;BME280;62544;50.826;14.354;2022-12-29T16:39:27;98559.92;;;7.42;80.11
74181;BME280;62544;50.826;14.354;2022-12-29T16:43:30;98564.69;;;7.32;81.40
74181;BME280;62544;50.826;14.354;2022-12-29T16:47:33;98571.35;;;7.21;82.88
74181;BME280;62544;50.826;14.354;2022-12-29T16:51:37;98576.82;;;7.11;82.78
74181;BME280;62544;50.826;14.354;2022-12-29T16:55:45;98581.83;;;7.05;82.75
74181;BME280;62544;50.826;14.354;2022-12-29T16:59:45;98586.22;;;7.00;82.51
74181;BME280;62544;50.826;14.354;2022-12-29T17:03:53;98587.77;;;6.97;82.58
74181;BME280;62544;50.826;14.354;2022-12-29T17:07:53;98588.44;;;6.93;83.50
74181;BME280;62544;50.826;14.354;2022-12-29T17:11:58;98590.04;;;6.87;83.69
74181;BME280;62544;50.826;14.354;2022-12-29T17:16:01;98592.27;;;6.82;84.32
74181;BME280;62544;50.826;14.354;2022-12-29T17:20:08;98594.84;;;6.77;84.11
74181;BME280;62544;50.826;14.354;2022-12-29T17:24:18;98598.17;;;6.71;83.84
74181;BME280;62544;50.826;14.354;2022-12-29T17:28:23;98602.15;;;6.65;83.79
74181;BME280;62544;50.826;14.354;2022-12-29T17:32:17;98606.25;;;6.58;83.96
74181;BME280;62544;50.826;14.354;2022-12-29T17:36:21;98610.83;;;6.50;83.35
74181;BME280;62544;50.826;14.354;2022-12-29T17:40:28;98614.54;;;6.42;83.72
74181;BME280;62544;50.826;14.354;2022-12-29T17:44:29;98619.12;;;6.33;84.17
74181;BME280;62544;50.826;14.354;2022-12-29T17:48:33;98622.57;;;6.25;84.22
74181;BME280;62544;50.826;14.354;2022-12-29T17:52:37;98626.42;;;6.17;84.38
74181;BME280;62544;50.826;14.354;2022-12-29T17:56:41;98630.42;;;6.08;84.60
74181;BME280;62544;50.826;14.354;2022-12-29T18:00:48;98634.78;;;5.99;85.65
74181;BME280;62544;50.826;14.354;2022-12-29T18:04:49;98637.47;;;5.87;88.00
74181;BME280;62544;50.826;14.354;2022-12-29T18:08:53;98639.70;;;5.75;88.36
74181;BME280;62544;50.826;14.354;2022-12-29T18:12:58;98640.12;;;5.64;89.48
74181;BME280;62544;50.826;14.354;2022-12-29T18:17:03;98639.35;;;5.51;89.53
74181;BME280;62544;50.826;14.354;2022-12-29T18:21:05;98638.53;;;5.40;89.39
74181;BME280;62544;50.826;14.354;2022-12-29T18:25:30;98638.25;;;5.28;88.52
74181;BME280;62544;50.826;14.354;2022-12-29T18:29:13;98638.36;;;5.19;88.88
74181;BME280;62544;50.826;14.354;2022-12-29T18:33:17;98638.39;;;5.10;89.67
74181;BME280;62544;50.826;14.354;2022-12-29T18:37:24;98637.28;;;5.00;90.25
74181;BME280;62544;50.826;14.354;2022-12-29T18:41:26;98638.87;;;4.90;90.50
74181;BME280;62544;50.826;14.354;2022-12-29T18:45:30;98642.18;;;4.79;91.05
74181;BME280;62544;50.826;14.354;2022-12-29T18:49:33;98645.08;;;4.70;90.81
74181;BME280;62544;50.826;14.354;2022-12-29T18:53:37;98647.62;;;4.61;90.30
74181;BME280;62544;50.826;14.354;2022-12-29T18:57:41;98649.36;;;4.52;89.42
74181;BME280;62544;50.826;14.354;2022-12-29T19:01:45;98649.81;;;4.45;90.25
74181;BME280;62544;50.826;14.354;2022-12-29T19:05:49;98648.97;;;4.37;89.96
74181;BME280;62544;50.826;14.354;2022-12-29T19:09:53;98649.80;;;4.30;90.71
74181;BME280;62544;50.826;14.354;2022-12-29T19:13:57;98650.17;;;4.24;89.92
74181;BME280;62544;50.826;14.354;2022-12-29T19:18:02;98652.92;;;4.17;90.13
74181;BME280;62544;50.826;14.354;2022-12-29T19:22:05;98658.20;;;4.13;90.22
74181;BME280;62544;50.826;14.354;2022-12-29T19:30:13;98666.96;;;4.07;90.75
74181;BME280;62544;50.826;14.354;2022-12-29T19:34:17;98670.97;;;4.10;91.95
74181;BME280;62544;50.826;14.354;2022-12-29T19:38:21;98674.14;;;4.16;91.17
74181;BME280;62544;50.826;14.354;2022-12-29T19:42:25;98675.63;;;4.25;90.69
74181;BME280;62544;50.826;14.354;2022-12-29T19:46:29;98675.81;;;4.34;89.90
74181;BME280;62544;50.826;14.354;2022-12-29T19:50:33;98675.83;;;4.44;89.98
74181;BME280;62544;50.826;14.354;2022-12-29T19:54:37;98676.83;;;4.52;89.27
74181;BME280;62544;50.826;14.354;2022-12-29T19:58:41;98678.47;;;4.59;89.35
74181;BME280;62544;50.826;14.354;2022-12-29T20:02:45;98676.29;;;4.64;89.13
74181;BME280;62544;50.826;14.354;2022-12-29T20:06:49;98673.54;;;4.69;89.44
74181;BME280;62544;50.826;14.354;2022-12-29T20:11:00;98668.91;;;4.73;89.48
74181;BME280;62544;50.826;14.354;2022-12-29T20:14:57;98664.67;;;4.77;89.36
74181;BME280;62544;50.826;14.354;2022-12-29T20:19:01;98663.62;;;4.81;90.46
74181;BME280;62544;50.826;14.354;2022-12-29T20:23:05;98663.42;;;4.86;90.51
74181;BME280;62544;50.826;14.354;2022-12-29T20:27:10;98663.37;;;4.91;89.86
74181;BME280;62544;50.826;14.354;2022-12-29T20:31:15;98664.08;;;4.95;90.09
74181;BME280;62544;50.826;14.354;2022-12-29T20:35:17;98658.75;;;5.00;89.75
74181;BME280;62544;50.826;14.354;2022-12-29T20:39:22;98651.14;;;5.05;89.68
74181;BME280;62544;50.826;14.354;2022-12-29T20:43:25;98643.17;;;5.09;90.35
74181;BME280;62544;50.826;14.354;2022-12-29T20:47:29;98637.89;;;5.10;91.11
74181;BME280;62544;50.826;14.354;2022-12-29T20:51:33;98635.50;;;5.11;90.56
74181;BME280;62544;50.826;14.354;2022-12-29T20:55:37;98634.03;;;5.09;91.41
74181;BME280;62544;50.826;14.354;2022-12-29T20:59:41;98634.00;;;5.04;91.71
74181;BME280;62544;50.826;14.354;2022-12-29T21:03:45;98632.83;;;5.00;92.18
74181;BME280;62544;50.826;14.354;2022-12-29T21:07:49;98630.66;;;4.95;93.52
74181;BME280;62544;50.826;14.354;2022-12-29T21:11:53;98630.42;;;4.94;93.32
74181;BME280;62544;50.826;14.354;2022-12-29T21:15:58;98629.77;;;4.95;92.87
74181;BME280;62544;50.826;14.354;2022-12-29T21:20:01;98629.47;;;4.96;92.62
74181;BME280;62544;50.826;14.354;2022-12-29T21:24:06;98629.88;;;5.00;92.35
74181;BME280;62544;50.826;14.354;2022-12-29T21:28:09;98631.71;;;5.05;92.33
74181;BME280;62544;50.826;14.354;2022-12-29T21:32:13;98634.58;;;5.11;92.77
74181;BME280;62544;50.826;14.354;2022-12-29T21:36:17;98637.89;;;5.16;91.31
74181;BME280;62544;50.826;14.354;2022-12-29T21:40:21;98641.42;;;5.18;91.93
74181;BME280;62544;50.826;14.354;2022-12-29T21:44:25;98643.74;;;5.17;92.01
74181;BME280;62544;50.826;14.354;2022-12-29T21:48:29;98649.25;;;5.17;92.53
74181;BME280;62544;50.826;14.354;2022-12-29T21:52:33;98656.11;;;5.15;91.50
74181;BME280;62544;50.826;14.354;2022-12-29T21:56:37;98661.19;;;5.11;91.99
74181;BME280;62544;50.826;14.354;2022-12-29T22:00:41;98668.16;;;5.07;92.78
74181;BME280;62544;50.826;14.354;2022-12-29T22:04:45;98677.23;;;5.02;93.42
74181;BME280;62544;50.826;14.354;2022-12-29T22:08:49;98685.47;;;4.97;93.76
74181;BME280;62544;50.826;14.354;2022-12-29T22:12:53;98691.52;;;4.91;92.37
74181;BME280;62544;50.826;14.354;2022-12-29T22:16:57;98696.70;;;4.83;93.00
74181;BME280;62544;50.826;14.354;2022-12-29T22:21:08;98700.92;;;4.73;92.93
74181;BME280;62544;50.826;14.354;2022-12-29T22:25:05;98706.06;;;4.64;95.07
74181;BME280;62544;50.826;14.354;2022-12-29T22:29:09;98710.40;;;4.59;95.01
74181;BME280;62544;50.826;14.354;2022-12-29T22:33:13;98713.46;;;4.57;94.65
74181;BME280;62544;50.826;14.354;2022-12-29T22:37:17;98715.20;;;4.54;94.71
74181;BME280;62544;50.826;14.354;2022-12-29T22:41:21;98715.63;;;4.53;95.18
74181;BME280;62544;50.826;14.354;2022-12-29T22:45:25;98717.25;;;4.58;95.39
74181;BME280;62544;50.826;14.354;2022-12-29T22:49:29;98719.89;;;4.64;95.70
74181;BME280;62544;50.826;14.354;2022-12-29T22:53:33;98721.80;;;4.73;94.49
74181;BME280;62544;50.826;14.354;2022-12-29T22:57:37;98721.92;;;4.80;94.85
74181;BME280;62544;50.826;14.354;2022-12-29T23:01:42;98720.70;;;4.86;94.75
74181;BME280;62544;50.826;14.354;2022-12-29T23:05:53;98721.06;;;4.92;93.85
74181;BME280;62544;50.826;14.354;2022-12-29T23:09:49;98721.41;;;4.98;94.42
74181;BME280;62544;50.826;14.354;2022-12-29T23:13:53;98724.39;;;5.05;94.07
74181;BME280;62544;50.826;14.354;2022-12-29T23:17:57;98727.06;;;5.10;93.44
74181;BME280;62544;50.826;14.354;2022-12-29T23:22:01;98730.79;;;5.14;93.72
74181;BME280;62544;50.826;14.354;2022-12-29T23:26:05;98731.69;;;5.17;93.17
74181;BME280;62544;50.826;14.354;2022-12-29T23:30:09;98732.31;;;5.18;93.05
74181;BME280;62544;50.826;14.354;2022-12-29T23:34:14;98734.70;;;5.19;93.13
74181;BME280;62544;50.826;14.354;2022-12-29T23:38:17;98738.50;;;5.19;93.15
74181;BME280;62544;50.826;14.354;2022-12-29T23:42:21;98743.69;;;5.20;93.19
74181;BME280;62544;50.826;14.354;2022-12-29T23:46:26;98748.63;;;5.20;92.94